Time;durP1;ratioP1;P1;durP2;ratioP2;P2;SDS_P1;SDS_P2;PMS_P1;PMS_P2;Temp;Humidity;BMP_temperature;BMP_pressure;BME280_temperature;BME280_humidity;BME280_pressure;Samples;Min_cycle;Max_cycle;Signal;HPM_P1;HPM_P2
2021/01/17 00:00:51;;;;;;;3.33;3.00;;;0.60;99.90;;;;;;5115591;28;20279;-77
2021/01/17 00:03:18;;;;;;;3.78;3.35;;;0.60;99.90;;;;;;5115804;28;20275;-77
2021/01/17 00:05:45;;;;;;;3.45;3.15;;;0.70;99.90;;;;;;5115853;28;20195;-77
2021/01/17 00:08:12;;;;;;;3.70;3.20;;;0.70;99.90;;;;;;5115802;28;20301;-77
2021/01/17 00:10:39;;;;;;;4.90;3.00;;;0.70;99.90;;;;;;5115663;28;20283;-77
2021/01/17 00:13:07;;;;;;;4.45;3.05;;;0.70;99.90;;;;;;5115639;28;20209;-78
2021/01/17 00:15:33;;;;;;;4.22;3.75;;;0.80;99.90;;;;;;5115318;28;20212;-78
2021/01/17 00:18:00;;;;;;;4.50;3.70;;;0.70;99.90;;;;;;5115631;28;20278;-78
2021/01/17 00:20:26;;;;;;;3.92;3.40;;;0.70;99.90;;;;;;5115459;28;20191;-78
2021/01/17 00:22:53;;;;;;;5.03;4.38;;;0.80;99.90;;;;;;5115434;28;20274;-78
2021/01/17 00:25:21;;;;;;;5.20;3.90;;;0.80;99.90;;;;;;5114898;28;20176;-77
2021/01/17 00:27:49;;;;;;;5.28;4.32;;;0.80;99.90;;;;;;5115363;28;20597;-77
2021/01/17 00:30:20;;;;;;;4.30;3.90;;;0.80;99.90;;;;;;5114437;28;20283;-77
2021/01/17 00:32:48;;;;;;;4.40;3.75;;;0.80;99.90;;;;;;5095200;28;20204;-77
2021/01/17 00:35:14;;;;;;;4.20;3.80;;;0.80;99.90;;;;;;5095223;28;20311;-77
2021/01/17 00:37:40;;;;;;;6.20;4.25;;;0.80;99.90;;;;;;5095028;28;20275;-78
2021/01/17 00:40:08;;;;;;;4.70;3.50;;;0.90;99.90;;;;;;5094801;28;20679;-78
2021/01/17 00:42:34;;;;;;;4.22;3.42;;;0.80;99.90;;;;;;5094728;28;20550;-77
2021/01/17 00:45:00;;;;;;;4.10;3.70;;;0.80;99.90;;;;;;5095126;28;20552;-78
2021/01/17 00:47:27;;;;;;;4.57;4.18;;;0.80;99.90;;;;;;5094797;28;20288;-78
2021/01/17 00:49:53;;;;;;;6.25;4.63;;;0.80;99.90;;;;;;5094967;28;20283;-78
2021/01/17 00:52:20;;;;;;;4.88;3.78;;;0.80;99.90;;;;;;5094703;28;20309;-77
2021/01/17 00:54:46;;;;;;;6.53;4.40;;;0.90;99.90;;;;;;5094610;28;20307;-78
2021/01/17 00:57:12;;;;;;;5.30;4.70;;;0.80;99.90;;;;;;5094601;28;20622;-77
2021/01/17 00:59:38;;;;;;;4.97;4.50;;;0.80;99.90;;;;;;5094724;28;20363;-78
2021/01/17 01:02:06;;;;;;;4.45;4.05;;;0.80;99.90;;;;;;5094418;28;20287;-77
2021/01/17 01:04:34;;;;;;;8.32;4.60;;;0.80;99.90;;;;;;5094604;28;20196;-77
2021/01/17 01:07:00;;;;;;;7.55;4.70;;;0.90;99.90;;;;;;5094339;28;20234;-77
2021/01/17 01:09:26;;;;;;;10.93;4.85;;;0.90;99.90;;;;;;5094360;28;20283;-77
2021/01/17 01:11:53;;;;;;;5.15;4.32;;;0.90;99.90;;;;;;5094227;28;20283;-77
2021/01/17 01:14:19;;;;;;;5.78;4.70;;;0.90;99.90;;;;;;5094304;28;20273;-77
2021/01/17 01:16:49;;;;;;;8.35;5.40;;;0.90;99.90;;;;;;5094181;28;20275;-77
2021/01/17 01:19:15;;;;;;;5.53;4.72;;;0.90;99.90;;;;;;5094329;28;20193;-76
2021/01/17 01:21:42;;;;;;;5.55;5.00;;;0.90;99.90;;;;;;5108705;28;20184;-76
2021/01/17 01:24:08;;;;;;;6.53;4.90;;;0.90;99.90;;;;;;5114457;28;20621;-76
2021/01/17 01:26:39;;;;;;;5.95;5.13;;;0.90;99.90;;;;;;5114136;28;20271;-77
2021/01/17 01:29:05;;;;;;;6.53;5.72;;;0.90;99.90;;;;;;5114326;28;20224;-77
2021/01/17 01:31:32;;;;;;;7.93;5.88;;;1.00;99.90;;;;;;5112858;28;20275;-78
2021/01/17 01:33:59;;;;;;;9.20;6.18;;;1.00;99.90;;;;;;5114091;28;20219;-79
2021/01/17 01:36:26;;;;;;;6.32;5.30;;;1.00;99.90;;;;;;5113108;28;20718;-78
2021/01/17 01:38:54;;;;;;;8.52;6.03;;;1.00;99.90;;;;;;5113954;28;20680;-78
2021/01/17 01:41:21;;;;;;;7.40;5.35;;;1.00;99.90;;;;;;5114271;28;20278;-78
2021/01/17 01:43:47;;;;;;;5.47;5.00;;;1.00;99.90;;;;;;5114175;28;20271;-78
2021/01/17 01:46:15;;;;;;;6.22;5.63;;;1.00;99.90;;;;;;5113897;28;20278;-78
2021/01/17 01:48:43;;;;;;;6.90;5.80;;;1.10;99.90;;;;;;5114003;28;20218;-78
2021/01/17 01:51:09;;;;;;;5.68;5.18;;;1.10;99.90;;;;;;5113891;28;20219;-78
2021/01/17 01:53:35;;;;;;;6.50;5.70;;;1.10;99.90;;;;;;5113728;28;20224;-79
2021/01/17 01:56:02;;;;;;;7.18;5.38;;;1.10;99.90;;;;;;5113901;28;20620;-79
2021/01/17 01:58:28;;;;;;;9.40;6.05;;;1.10;99.90;;;;;;5113863;28;20219;-79
2021/01/17 02:00:54;;;;;;;8.57;5.65;;;1.10;99.90;;;;;;5113786;28;20282;-80
2021/01/17 02:03:21;;;;;;;7.95;5.68;;;1.10;99.90;;;;;;5113804;28;20325;-78
2021/01/17 02:05:47;;;;;;;5.80;5.00;;;1.20;99.90;;;;;;5113530;28;20378;-78
2021/01/17 02:08:42;;;;;;;5.93;4.95;;;1.20;99.90;;;;;;5113601;28;20219;-78
2021/01/17 02:11:18;;;;;;;5.85;5.22;;;1.20;99.90;;;;;;5113687;28;20291;-78
2021/01/17 02:13:49;;;;;;;6.15;5.55;;;1.20;99.90;;;;;;5113442;28;20301;-78
2021/01/17 02:16:15;;;;;;;7.40;5.22;;;1.20;99.90;;;;;;5113401;28;20316;-78
2021/01/17 02:18:43;;;;;;;7.60;5.28;;;1.20;99.90;;;;;;5113489;28;20274;-78
2021/01/17 02:21:10;;;;;;;7.70;5.55;;;1.20;99.90;;;;;;5113472;28;20341;-77
2021/01/17 02:23:40;;;;;;;5.35;4.50;;;1.10;99.90;;;;;;5113574;28;20287;-77
2021/01/17 02:26:08;;;;;;;5.72;4.82;;;1.10;99.90;;;;;;5113297;28;20279;-77
2021/01/17 02:28:34;;;;;;;6.57;4.80;;;1.00;99.90;;;;;;5113413;28;20234;-77
2021/01/17 02:31:02;;;;;;;7.20;5.10;;;1.00;99.90;;;;;;5113219;28;20199;-77
2021/01/17 02:33:31;;;;;;;5.25;4.38;;;1.00;99.90;;;;;;5113241;28;20275;-77
2021/01/17 02:36:03;;;;;;;5.80;4.50;;;1.00;99.90;;;;;;5113364;28;20826;-77
2021/01/17 02:38:39;;;;;;;7.53;5.20;;;0.90;99.90;;;;;;5113060;28;20282;-77
2021/01/17 02:41:13;;;;;;;5.60;4.05;;;0.90;99.90;;;;;;5113255;28;20192;-77
2021/01/17 02:43:41;;;;;;;5.45;4.55;;;0.90;99.90;;;;;;5113401;28;20222;-77
2021/01/17 02:46:07;;;;;;;6.32;5.05;;;0.90;99.90;;;;;;5113517;28;20196;-78
2021/01/17 02:48:33;;;;;;;5.88;4.75;;;1.00;99.90;;;;;;5120027;28;20218;-78
2021/01/17 02:50:59;;;;;;;5.68;4.70;;;0.90;99.90;;;;;;5119843;28;20717;-78
2021/01/17 02:53:28;;;;;;;7.95;4.30;;;0.90;99.90;;;;;;5119959;28;20278;-79
2021/01/17 02:55:58;;;;;;;6.03;5.32;;;0.90;99.90;;;;;;5119964;28;20192;-79
2021/01/17 02:58:27;;;;;;;6.35;5.00;;;0.90;99.90;;;;;;5119964;28;20274;-80
2021/01/17 03:00:56;;;;;;;4.93;4.40;;;0.90;99.90;;;;;;5115440;28;20291;-79
2021/01/17 03:03:30;;;;;;;5.63;4.70;;;0.90;99.90;;;;;;5099212;28;20250;-79
2021/01/17 03:05:58;;;;;;;6.57;4.80;;;1.00;99.90;;;;;;5099446;28;20287;-78
2021/01/17 03:08:26;;;;;;;7.47;5.68;;;1.00;99.90;;;;;;5099166;28;20279;-78
2021/01/17 03:10:52;;;;;;;6.40;4.80;;;0.90;99.90;;;;;;5099445;28;20275;-78
2021/01/17 03:13:19;;;;;;;4.97;4.28;;;0.90;99.90;;;;;;5099335;28;20193;-77
2021/01/17 03:15:46;;;;;;;4.72;4.32;;;0.90;99.90;;;;;;5099242;28;20255;-77
2021/01/17 03:18:12;;;;;;;4.90;4.13;;;0.80;99.90;;;;;;5099233;28;20207;-78
2021/01/17 03:20:38;;;;;;;5.93;4.32;;;0.90;99.90;;;;;;5099249;28;20220;-77
2021/01/17 03:23:04;;;;;;;6.75;4.93;;;0.90;99.90;;;;;;5099027;28;20283;-77
2021/01/17 03:25:30;;;;;;;5.53;4.13;;;0.90;99.90;;;;;;5103763;28;20192;-78
2021/01/17 03:27:56;;;;;;;5.43;4.30;;;0.90;99.90;;;;;;5119685;28;20223;-77
2021/01/17 03:30:22;;;;;;;6.10;4.53;;;0.90;99.90;;;;;;5119684;28;20187;-77
2021/01/17 03:32:49;;;;;;;6.05;4.75;;;1.00;99.90;;;;;;5119518;28;20449;-77
2021/01/17 03:35:15;;;;;;;5.35;4.70;;;1.00;99.90;;;;;;5119404;28;20221;-79
2021/01/17 03:37:41;;;;;;;6.53;4.93;;;1.00;99.90;;;;;;5119391;28;20283;-77
2021/01/17 03:40:08;;;;;;;5.95;3.95;;;1.00;99.90;;;;;;5119234;28;20269;-78
2021/01/17 03:42:34;;;;;;;5.63;5.03;;;1.00;99.90;;;;;;5119330;28;20725;-77
2021/01/17 03:45:00;;;;;;;5.88;4.97;;;1.10;99.90;;;;;;5119581;28;20219;-78
2021/01/17 03:47:26;;;;;;;5.10;4.55;;;1.10;99.90;;;;;;5119404;28;20627;-78
2021/01/17 03:49:53;;;;;;;6.68;4.97;;;1.00;99.90;;;;;;5119556;28;20295;-78
2021/01/17 03:52:19;;;;;;;5.00;4.60;;;1.00;99.90;;;;;;5119246;28;20663;-78
2021/01/17 03:54:45;;;;;;;5.53;4.15;;;1.00;99.90;;;;;;5119369;28;20302;-78
2021/01/17 03:57:11;;;;;;;6.70;5.00;;;1.00;99.90;;;;;;5119424;27;20274;-78
2021/01/17 03:59:37;;;;;;;5.17;4.67;;;1.10;99.90;;;;;;5115663;28;20188;-78
2021/01/17 04:02:03;;;;;;;5.75;4.45;;;1.10;99.90;;;;;;5116239;28;20449;-78
2021/01/17 04:04:29;;;;;;;5.65;4.55;;;1.10;99.90;;;;;;5116072;28;20288;-78
2021/01/17 04:06:56;;;;;;;5.50;4.80;;;1.10;99.90;;;;;;5116069;28;20192;-78
2021/01/17 04:09:22;;;;;;;4.88;4.32;;;1.10;99.90;;;;;;5116096;28;20481;-78
2021/01/17 04:11:48;;;;;;;5.60;4.60;;;1.10;99.90;;;;;;5116197;28;20724;-78
2021/01/17 04:14:14;;;;;;;6.00;4.65;;;1.10;99.90;;;;;;5115918;28;20475;-78
2021/01/17 04:16:47;;;;;;;5.75;5.25;;;1.20;99.90;;;;;;5115817;28;20267;-78
2021/01/17 04:19:13;;;;;;;5.50;4.70;;;1.20;99.90;;;;;;5115779;28;20216;-79
2021/01/17 04:21:39;;;;;;;8.00;4.93;;;1.20;99.90;;;;;;5115977;28;20575;-78
2021/01/17 04:24:07;;;;;;;5.18;4.70;;;1.20;99.90;;;;;;5115729;28;20223;-78
2021/01/17 04:26:33;;;;;;;8.15;5.47;;;1.10;99.90;;;;;;5115669;28;20188;-78
2021/01/17 04:28:59;;;;;;;5.70;4.60;;;1.10;99.90;;;;;;5115431;28;20241;-78
2021/01/17 04:31:25;;;;;;;6.18;5.22;;;1.10;99.90;;;;;;5115586;28;20536;-78
2021/01/17 04:33:51;;;;;;;6.07;4.50;;;1.10;99.90;;;;;;5115226;28;20266;-78
2021/01/17 04:36:17;;;;;;;9.30;5.50;;;1.10;99.90;;;;;;5115586;28;20238;-78
2021/01/17 04:38:43;;;;;;;7.85;6.10;;;1.10;99.90;;;;;;5115185;28;20762;-77
2021/01/17 04:41:14;;;;;;;7.35;5.03;;;1.10;99.90;;;;;;5115430;28;20228;-78
2021/01/17 04:43:48;;;;;;;5.88;4.38;;;1.20;99.90;;;;;;5115296;28;20191;-79
2021/01/17 04:46:15;;;;;;;5.90;5.22;;;1.10;99.90;;;;;;5115859;28;20282;-79
2021/01/17 04:48:43;;;;;;;6.57;5.05;;;1.10;99.90;;;;;;5115313;28;20303;-79
2021/01/17 04:51:10;;;;;;;5.18;4.63;;;1.10;99.90;;;;;;5115226;28;20282;-78
2021/01/17 04:53:37;;;;;;;7.00;5.68;;;1.10;99.90;;;;;;5115103;28;20283;-78
2021/01/17 04:56:17;;;;;;;6.35;5.15;;;1.10;99.90;;;;;;5114905;28;20612;-77
2021/01/17 04:58:44;;;;;;;6.45;5.35;;;1.20;99.90;;;;;;5114872;28;20192;-78
2021/01/17 05:01:20;;;;;;;7.10;5.75;;;1.10;99.90;;;;;;5113949;28;20283;-78
2021/01/17 05:03:53;;;;;;;6.65;5.50;;;1.10;99.90;;;;;;5114877;28;20278;-78
2021/01/17 05:06:26;;;;;;;5.63;5.05;;;1.20;99.90;;;;;;5114959;28;20558;-78
2021/01/17 05:08:58;;;;;;;5.40;4.63;;;1.20;99.90;;;;;;5114700;28;20654;-78
2021/01/17 05:11:35;;;;;;;5.35;4.47;;;1.20;99.90;;;;;;5113516;28;20217;-77
2021/01/17 05:14:10;;;;;;;6.18;5.00;;;1.20;99.90;;;;;;5114571;28;20215;-77
2021/01/17 05:16:39;;;;;;;7.22;4.75;;;1.20;99.90;;;;;;5114779;28;20191;-77
2021/01/17 05:19:05;;;;;;;5.10;4.53;;;1.10;99.90;;;;;;5114341;28;20188;-79
2021/01/17 05:21:34;;;;;;;6.45;4.82;;;1.20;99.90;;;;;;5114647;28;20274;-78
2021/01/17 05:24:02;;;;;;;7.30;5.00;;;1.20;99.90;;;;;;5114297;28;20188;-78
2021/01/17 05:26:28;;;;;;;6.60;5.60;;;1.20;99.90;;;;;;5114397;28;20625;-77
2021/01/17 05:28:55;;;;;;;5.38;4.85;;;1.20;99.90;;;;;;5114570;28;20219;-78
2021/01/17 05:31:26;;;;;;;4.70;4.30;;;1.20;99.90;;;;;;5114315;28;20268;-78
2021/01/17 05:33:54;;;;;;;6.57;5.60;;;1.20;99.90;;;;;;5114397;28;20211;-78
2021/01/17 05:36:20;;;;;;;7.68;4.88;;;1.20;99.90;;;;;;5114257;28;20196;-78
2021/01/17 05:38:59;;;;;;;7.10;4.63;;;1.20;99.90;;;;;;5114270;28;20307;-79
2021/01/17 05:41:25;;;;;;;6.18;5.18;;;1.20;99.90;;;;;;5114175;28;20275;-79
2021/01/17 05:43:51;;;;;;;8.65;5.75;;;1.20;99.90;;;;;;5114267;28;20282;-79
2021/01/17 05:46:18;;;;;;;10.88;5.78;;;1.20;99.90;;;;;;5114036;28;20619;-79
2021/01/17 05:48:44;;;;;;;6.80;5.75;;;1.10;99.90;;;;;;5114020;28;20729;-79
2021/01/17 05:51:23;;;;;;;8.73;5.53;;;1.10;99.90;;;;;;5114088;28;20283;-79
2021/01/17 05:53:50;;;;;;;9.80;5.95;;;1.10;99.90;;;;;;5114037;28;20286;-79
2021/01/17 05:56:16;;;;;;;7.82;5.63;;;1.20;99.90;;;;;;5113888;28;20278;-79
2021/01/17 05:58:43;;;;;;;7.60;5.70;;;1.10;99.90;;;;;;5113999;28;20632;-79
2021/01/17 06:01:16;;;;;;;8.07;5.43;;;1.20;99.90;;;;;;5113718;28;20282;-78
2021/01/17 06:03:50;;;;;;;8.43;6.43;;;1.20;99.90;;;;;;5114024;28;20283;-78
2021/01/17 06:06:25;;;;;;;7.90;5.90;;;1.20;99.90;;;;;;5113912;28;20733;-78
2021/01/17 06:08:53;;;;;;;8.48;6.35;;;1.20;99.90;;;;;;5113900;28;20191;-78
2021/01/17 06:11:20;;;;;;;8.70;6.00;;;1.30;99.90;;;;;;5113582;28;20279;-77
2021/01/17 06:13:53;;;;;;;9.32;6.63;;;1.20;99.90;;;;;;5113557;28;20271;-78
2021/01/17 06:16:34;;;;;;;8.70;6.00;;;1.20;99.90;;;;;;5113643;28;20274;-86
2021/01/17 06:19:02;;;;;;;10.07;5.72;;;1.20;99.90;;;;;;5113675;28;20551;-78
2021/01/17 06:21:29;;;;;;;7.55;5.45;;;1.20;99.90;;;;;;5113104;28;20274;-77
2021/01/17 06:23:57;;;;;;;7.45;5.60;;;1.20;99.90;;;;;;5113410;28;20742;-78
2021/01/17 06:26:29;;;;;;;7.70;5.72;;;1.20;99.90;;;;;;5113199;28;20319;-77
2021/01/17 06:28:55;;;;;;;9.15;5.53;;;1.20;99.90;;;;;;5113535;28;20219;-77
2021/01/17 06:31:26;;;;;;;8.30;6.30;;;1.20;99.90;;;;;;5111995;28;20211;-78
2021/01/17 06:33:53;;;;;;;10.18;6.53;;;1.20;99.90;;;;;;5111631;28;20282;-77
2021/01/17 06:36:20;;;;;;;8.82;6.85;;;1.20;99.90;;;;;;5111765;28;20885;-77
2021/01/17 06:38:46;;;;;;;8.00;5.95;;;1.20;99.90;;;;;;5112983;28;20211;-78
2021/01/17 06:41:12;;;;;;;10.35;6.15;;;1.20;99.90;;;;;;5113364;28;20259;-77
2021/01/17 06:43:41;;;;;;;11.43;7.10;;;1.30;99.90;;;;;;5113302;28;20282;-77
2021/01/17 06:46:08;;;;;;;10.15;7.05;;;1.30;99.90;;;;;;5113226;28;20616;-77
2021/01/17 06:48:34;;;;;;;11.40;6.47;;;1.30;99.90;;;;;;5113105;28;20715;-78
2021/01/17 06:51:16;;;;;;;11.13;7.38;;;1.30;99.90;;;;;;5112842;28;20270;-78
2021/01/17 06:53:51;;;;;;;8.50;6.32;;;1.30;99.90;;;;;;5113410;28;20271;-79
2021/01/17 06:56:19;;;;;;;11.65;7.95;;;1.30;99.90;;;;;;5113259;28;20202;-78
2021/01/17 06:58:46;;;;;;;10.25;7.40;;;1.20;99.90;;;;;;5113139;28;20188;-78
2021/01/17 07:01:14;;;;;;;8.68;6.75;;;1.20;99.90;;;;;;5113094;28;20215;-78
2021/01/17 07:03:52;;;;;;;7.95;6.00;;;1.20;99.90;;;;;;5113030;28;20191;-78
2021/01/17 07:06:26;;;;;;;9.40;6.72;;;1.20;99.90;;;;;;5113198;28;20639;-79
2021/01/17 07:09:00;;;;;;;8.30;6.28;;;1.20;99.90;;;;;;5113199;28;20179;-77
2021/01/17 07:11:37;;;;;;;9.77;6.60;;;1.20;99.90;;;;;;5112919;28;20330;-77
2021/01/17 07:14:08;;;;;;;8.88;6.80;;;1.20;99.90;;;;;;5112920;28;20223;-77
2021/01/17 07:16:34;;;;;;;8.75;6.57;;;1.20;99.90;;;;;;5112995;28;20279;-77
2021/01/17 07:19:06;;;;;;;6.97;5.63;;;1.30;99.90;;;;;;5112935;28;20195;-77
2021/01/17 07:21:40;;;;;;;7.20;5.32;;;1.20;99.90;;;;;;5112910;28;20231;-77
2021/01/17 07:24:09;;;;;;;5.13;4.63;;;1.30;99.90;;;;;;5112919;28;20226;-77
2021/01/17 07:26:47;;;;;;;5.85;5.07;;;1.30;99.90;;;;;;5112687;28;20191;-78
2021/01/17 07:29:16;;;;;;;5.43;4.18;;;1.20;99.90;;;;;;5113061;28;20223;-78
2021/01/17 07:31:45;;;;;;;6.07;4.80;;;1.20;99.90;;;;;;5112796;28;20623;-78
2021/01/17 07:34:12;;;;;;;5.78;4.82;;;1.20;99.90;;;;;;5114537;28;20605;-78
2021/01/17 07:36:39;;;;;;;7.72;5.45;;;1.20;99.90;;;;;;5116575;28;20184;-78
2021/01/17 07:39:06;;;;;;;6.07;4.88;;;1.20;99.90;;;;;;5116276;28;20691;-78
2021/01/17 07:41:37;;;;;;;5.97;5.30;;;1.20;99.90;;;;;;5114190;28;20283;-78
2021/01/17 07:44:03;;;;;;;8.95;5.53;;;1.20;99.90;;;;;;5115518;28;20188;-78
2021/01/17 07:46:31;;;;;;;6.60;5.90;;;1.30;99.90;;;;;;5115926;28;20205;-78
2021/01/17 07:49:01;;;;;;;5.45;4.70;;;1.30;99.90;;;;;;5116266;28;20241;-78
2021/01/17 07:51:27;;;;;;;6.20;5.45;;;1.30;99.90;;;;;;5116035;28;20271;-78
2021/01/17 07:54:00;;;;;;;11.45;6.10;;;1.30;99.90;;;;;;5115980;28;20683;-78
2021/01/17 07:56:28;;;;;;;6.13;5.15;;;1.30;99.90;;;;;;5115780;28;20348;-78
2021/01/17 07:58:59;;;;;;;6.82;5.75;;;1.30;99.90;;;;;;5115921;28;20279;-77
2021/01/17 08:01:45;;;;;;;7.43;5.55;;;1.30;99.90;;;;;;5115884;28;20663;-78
2021/01/17 08:04:24;;;;;;;6.85;6.15;;;1.40;99.90;;;;;;5115861;28;20543;-79
2021/01/17 08:06:54;;;;;;;8.30;5.88;;;1.40;99.90;;;;;;5115868;28;20223;-79
2021/01/17 08:09:50;;;;;;;9.10;6.45;;;1.40;99.90;;;;;;5115915;28;20188;-77
2021/01/17 08:12:35;;;;;;;7.82;5.72;;;1.50;99.90;;;;;;5115694;28;20195;-78
2021/01/17 08:15:16;;;;;;;8.85;6.85;;;1.60;99.90;;;;;;5115676;28;20294;-79
2021/01/17 08:17:43;;;;;;;8.95;6.75;;;1.60;99.90;;;;;;5115421;28;20198;-79
2021/01/17 08:20:09;;;;;;;9.57;7.53;;;1.60;99.90;;;;;;5115666;28;20184;-80
2021/01/17 08:22:42;;;;;;;12.23;7.70;;;1.70;99.90;;;;;;5115504;28;20188;-79
2021/01/17 08:25:08;;;;;;;10.90;7.15;;;1.70;99.90;;;;;;5115384;28;20226;-80
2021/01/17 08:27:36;;;;;;;10.02;7.70;;;1.70;99.90;;;;;;5115491;28;20278;-79
2021/01/17 08:30:21;;;;;;;10.68;8.82;;;1.80;99.90;;;;;;5112265;28;20463;-79
2021/01/17 08:32:48;;;;;;;9.05;6.95;;;1.80;99.90;;;;;;5103556;28;20275;-79
2021/01/17 08:35:36;;;;;;;10.73;7.68;;;1.80;99.90;;;;;;5104600;28;20298;-79
2021/01/17 08:38:19;;;;;;;8.25;6.25;;;1.80;99.90;;;;;;5109984;28;20271;-80
2021/01/17 08:40:47;;;;;;;9.50;7.47;;;1.90;99.90;;;;;;5094357;28;20235;-79
2021/01/17 08:43:15;;;;;;;13.25;8.00;;;1.80;99.90;;;;;;5094576;28;20275;-78
2021/01/17 08:45:43;;;;;;;11.40;7.20;;;1.80;99.90;;;;;;5094385;28;20239;-78
2021/01/17 08:48:29;;;;;;;8.55;6.78;;;1.80;99.90;;;;;;5104834;28;20267;-78
2021/01/17 08:50:58;;;;;;;9.13;6.40;;;1.80;99.90;;;;;;5114633;28;20191;-78
2021/01/17 08:53:26;;;;;;;7.40;6.20;;;1.90;99.90;;;;;;5094483;28;20256;-79
2021/01/17 08:55:53;;;;;;;7.75;6.90;;;1.80;99.90;;;;;;5099253;28;20208;-79
2021/01/17 08:58:41;;;;;;;9.02;6.07;;;1.90;99.90;;;;;;5114711;28;20638;-79
2021/01/17 09:01:08;;;;;;;8.15;6.03;;;1.90;99.90;;;;;;5114799;28;20199;-79
2021/01/17 09:03:36;;;;;;;10.27;5.82;;;1.80;99.90;;;;;;5114857;28;20278;-79
2021/01/17 09:06:04;;;;;;;13.68;8.48;;;1.90;99.90;;;;;;5114621;28;20275;-79
2021/01/17 09:08:32;;;;;;;13.20;7.70;;;1.90;99.90;;;;;;5114770;28;20283;-79
2021/01/17 09:10:58;;;;;;;10.20;7.15;;;2.00;99.90;;;;;;5114646;28;20215;-79
2021/01/17 09:13:27;;;;;;;10.35;7.53;;;2.00;99.90;;;;;;5114685;28;20597;-78
2021/01/17 09:15:58;;;;;;;11.30;7.97;;;2.10;99.90;;;;;;5114551;28;20215;-78
2021/01/17 09:18:25;;;;;;;10.13;7.57;;;2.20;99.90;;;;;;5114516;28;20278;-77
2021/01/17 09:20:52;;;;;;;7.78;6.80;;;2.20;99.90;;;;;;5114462;28;20271;-77
2021/01/17 09:23:19;;;;;;;6.65;6.05;;;2.20;99.90;;;;;;5114354;28;20224;-78
2021/01/17 09:25:47;;;;;;;7.05;6.20;;;2.30;99.90;;;;;;5114215;28;20194;-78
2021/01/17 09:28:14;;;;;;;8.02;6.63;;;2.40;99.90;;;;;;5114332;28;20320;-78
2021/01/17 09:30:48;;;;;;;8.98;5.80;;;2.40;99.90;;;;;;5114483;28;20279;-78
2021/01/17 09:33:15;;;;;;;7.82;6.82;;;2.40;99.90;;;;;;5114543;28;20207;-78
2021/01/17 09:35:42;;;;;;;15.13;9.90;;;2.50;99.90;;;;;;5115287;28;20216;-77
2021/01/17 09:38:13;;;;;;;8.68;6.53;;;2.60;99.90;;;;;;5114290;28;20184;-78
2021/01/17 09:40:40;;;;;;;7.20;6.32;;;2.60;99.90;;;;;;5114103;28;20259;-79
2021/01/17 09:43:07;;;;;;;8.75;6.53;;;2.70;99.90;;;;;;5114339;28;20195;-78
2021/01/17 09:45:33;;;;;;;11.27;8.18;;;2.80;99.90;;;;;;5114132;28;20279;-78
2021/01/17 09:48:00;;;;;;;6.65;5.93;;;2.90;99.90;;;;;;5114063;28;20184;-79
2021/01/17 09:50:31;;;;;;;8.00;5.82;;;2.90;99.90;;;;;;5113967;28;20196;-79
2021/01/17 09:53:04;;;;;;;9.23;6.47;;;3.00;99.90;;;;;;5114494;28;20241;-79
2021/01/17 09:55:30;;;;;;;8.93;6.55;;;3.10;99.90;;;;;;5114401;28;20379;-79
2021/01/17 09:57:59;;;;;;;7.43;6.38;;;3.10;99.90;;;;;;5113451;28;20286;-79
2021/01/17 10:00:25;;;;;;;10.32;6.10;;;3.20;99.90;;;;;;5113406;28;20612;-78
2021/01/17 10:02:51;;;;;;;8.48;7.03;;;3.30;99.90;;;;;;5113514;28;20188;-78
2021/01/17 10:05:25;;;;;;;9.75;6.90;;;3.30;99.90;;;;;;5113980;28;20768;-79
2021/01/17 10:07:59;;;;;;;8.45;6.03;;;3.40;99.90;;;;;;5114501;28;20642;-80
2021/01/17 10:10:25;;;;;;;7.38;6.20;;;3.40;99.90;;;;;;5113894;28;20196;-80
2021/01/17 10:12:51;;;;;;;10.13;6.57;;;3.40;99.90;;;;;;5113947;28;20275;-84
2021/01/17 10:15:22;;;;;;;8.35;6.70;;;3.40;99.90;;;;;;5113706;28;20311;-84
2021/01/17 10:17:52;;;;;;;8.75;6.68;;;3.50;99.90;;;;;;5113404;28;20184;-84
2021/01/17 10:20:24;;;;;;;9.38;6.90;;;3.50;99.90;;;;;;5114223;28;20195;-84
2021/01/17 10:22:57;;;;;;;8.80;7.15;;;3.50;99.90;;;;;;5115059;28;20274;-84
2021/01/17 10:25:25;;;;;;;12.02;7.03;;;3.50;99.90;;;;;;5114225;28;20188;-83
2021/01/17 10:27:58;;;;;;;9.55;6.57;;;3.50;99.90;;;;;;5113933;28;20275;-86
2021/01/17 10:30:33;;;;;;;11.52;7.97;;;3.50;99.90;;;;;;5109441;28;20375;-84
2021/01/17 10:33:05;;;;;;;8.75;6.45;;;3.60;99.90;;;;;;5110142;28;20179;-84
2021/01/17 10:36:04;;;;;;;10.90;7.20;;;3.60;99.90;;;;;;5113988;28;20207;-84
2021/01/17 10:38:34;;;;;;;11.15;7.00;;;3.70;99.90;;;;;;5068886;28;20203;-84
2021/01/17 10:41:03;;;;;;;8.88;7.25;;;3.80;99.90;;;;;;5113370;28;20188;-84
2021/01/17 10:43:38;;;;;;;9.98;6.72;;;3.80;99.90;;;;;;5113778;28;20251;-84
2021/01/17 10:46:15;;;;;;;12.93;8.07;;;3.80;99.90;;;;;;5113865;28;20266;-84
2021/01/17 10:48:54;;;;;;;12.93;7.85;;;3.80;99.90;;;;;;5104017;28;20179;-85
2021/01/17 10:51:29;;;;;;;12.77;7.43;;;3.70;99.90;;;;;;5115435;28;20188;-84
2021/01/17 10:54:05;;;;;;;14.93;7.35;;;3.70;99.90;;;;;;5114687;28;20183;-84
2021/01/17 10:56:37;;;;;;;9.98;7.03;;;3.90;99.90;;;;;;5097587;28;20215;-84
2021/01/17 10:59:13;;;;;;;11.25;7.30;;;3.80;99.90;;;;;;5112008;28;20646;-84
2021/01/17 11:01:47;;;;;;;12.68;8.02;;;3.70;99.90;;;;;;5112238;28;20187;-84
2021/01/17 11:04:15;;;;;;;14.48;7.82;;;3.70;99.90;;;;;;5114052;28;20187;-84
2021/01/17 11:06:46;;;;;;;14.85;7.65;;;3.80;99.90;;;;;;5114252;28;20192;-84
2021/01/17 11:09:16;;;;;;;11.32;7.53;;;3.90;99.90;;;;;;5111205;28;20278;-84
2021/01/17 11:11:45;;;;;;;13.68;7.55;;;3.90;99.90;;;;;;5111793;28;20232;-81
2021/01/17 11:14:11;;;;;;;11.50;7.28;;;3.90;99.90;;;;;;5112287;28;20275;-82
2021/01/17 11:16:39;;;;;;;8.85;6.50;;;4.00;99.90;;;;;;5116329;28;20243;-80
2021/01/17 11:19:06;;;;;;;12.30;7.60;;;4.00;99.90;;;;;;5116930;28;20262;-81
2021/01/17 11:21:33;;;;;;;11.98;7.35;;;4.00;99.90;;;;;;5116970;28;20274;-81
2021/01/17 11:24:00;;;;;;;9.93;7.00;;;4.00;99.90;;;;;;5117180;28;20275;-81
2021/01/17 11:26:27;;;;;;;11.52;7.40;;;4.00;99.90;;;;;;5116635;28;20275;-81
2021/01/17 11:28:59;;;;;;;17.02;8.55;;;4.10;99.90;;;;;;5117218;28;20282;-87
2021/01/17 11:31:26;;;;;;;11.95;8.23;;;4.10;99.90;;;;;;5111234;28;20660;-80
2021/01/17 11:33:53;;;;;;;10.32;7.85;;;4.10;99.90;;;;;;5112509;28;20230;-82
2021/01/17 11:36:21;;;;;;;12.95;8.20;;;4.20;99.90;;;;;;5116676;28;20207;-81
2021/01/17 11:38:50;;;;;;;11.57;7.70;;;4.30;99.90;;;;;;5116902;28;20307;-79
2021/01/17 11:41:17;;;;;;;13.02;7.43;;;4.30;99.90;;;;;;5116683;28;20286;-81
2021/01/17 11:43:45;;;;;;;14.38;8.27;;;4.30;99.90;;;;;;5116133;28;20278;-81
2021/01/17 11:46:14;;;;;;;11.43;7.07;;;4.30;99.90;;;;;;5115385;28;20274;-81
2021/01/17 11:48:45;;;;;;;14.27;7.72;;;4.30;99.90;;;;;;5116693;28;20593;-81
2021/01/17 11:51:12;;;;;;;14.30;8.75;;;4.30;99.90;;;;;;5116832;28;20275;-81
2021/01/17 11:53:38;;;;;;;10.93;7.35;;;4.20;99.90;;;;;;5117480;28;20187;-81
2021/01/17 11:56:05;;;;;;;13.95;8.23;;;4.20;99.90;;;;;;5117155;28;20223;-81
2021/01/17 11:58:39;;;;;;;15.10;9.05;;;4.20;99.90;;;;;;5116749;28;20644;-81
2021/01/17 12:01:08;;;;;;;15.35;8.90;;;4.20;99.90;;;;;;5116348;28;20196;-80
2021/01/17 12:03:37;;;;;;;11.60;8.20;;;4.10;99.90;;;;;;5116395;28;20187;-81
2021/01/17 12:06:07;;;;;;;14.35;8.93;;;4.20;99.90;;;;;;5116262;28;20215;-81
2021/01/17 12:09:00;;;;;;;10.23;8.20;;;4.20;99.90;;;;;;5116457;28;20192;-81
2021/01/17 12:11:27;;;;;;;11.68;7.78;;;4.20;99.90;;;;;;5116173;28;20405;-81
2021/01/17 12:13:54;;;;;;;8.32;6.97;;;4.20;99.90;;;;;;5116323;28;20275;-81
2021/01/17 12:16:27;;;;;;;12.23;8.05;;;4.10;99.90;;;;;;5115846;28;20310;-81
2021/01/17 12:18:55;;;;;;;13.95;7.97;;;4.10;99.90;;;;;;5116004;28;20279;-81
2021/01/17 12:21:22;;;;;;;10.48;6.57;;;4.10;99.90;;;;;;5115977;28;20196;-81
2021/01/17 12:23:48;;;;;;;12.55;7.63;;;4.10;99.90;;;;;;5116082;28;20219;-81
2021/01/17 12:26:15;;;;;;;10.32;6.95;;;4.10;99.90;;;;;;5115857;28;20275;-81
2021/01/17 12:28:41;;;;;;;9.40;6.97;;;4.10;99.90;;;;;;5115969;28;20192;-81
2021/01/17 12:31:09;;;;;;;10.45;6.80;;;4.00;99.90;;;;;;5115887;28;20282;-81
2021/01/17 12:33:35;;;;;;;11.38;7.70;;;4.00;99.90;;;;;;5116006;28;20187;-81
2021/01/17 12:36:04;;;;;;;10.73;6.78;;;3.90;99.90;;;;;;5115787;28;20315;-81
2021/01/17 12:38:31;;;;;;;12.35;7.18;;;3.80;99.90;;;;;;5115509;28;20294;-81
2021/01/17 12:40:57;;;;;;;10.52;7.25;;;3.80;99.90;;;;;;5115505;28;20620;-81
2021/01/17 12:43:23;;;;;;;7.82;6.85;;;3.70;99.90;;;;;;5115647;28;20230;-81
2021/01/17 12:45:49;;;;;;;10.02;7.25;;;3.70;99.90;;;;;;5115641;28;20245;-81
2021/01/17 12:48:15;;;;;;;14.63;10.27;;;3.70;99.90;;;;;;5115702;28;20188;-81
2021/01/17 12:50:44;;;;;;;16.10;9.70;;;3.60;99.90;;;;;;5115433;28;20195;-81
2021/01/17 12:53:11;;;;;;;12.57;7.47;;;3.50;99.90;;;;;;5115489;28;20192;-81
2021/01/17 12:55:37;;;;;;;9.02;5.60;;;3.50;99.90;;;;;;5115184;28;20252;-81
2021/01/17 12:58:07;;;;;;;13.97;7.60;;;3.40;99.90;;;;;;5115247;28;20216;-81
2021/01/17 13:00:33;;;;;;;8.88;6.32;;;3.40;99.90;;;;;;5115678;28;20445;-81
2021/01/17 13:02:59;;;;;;;8.55;5.13;;;3.30;99.90;;;;;;5115293;28;20230;-81
2021/01/17 13:05:25;;;;;;;7.25;5.68;;;3.20;99.90;;;;;;5115388;28;20192;-80